Time;durP1;ratioP1;P1;durP2;ratioP2;P2;SDS_P1;SDS_P2;PMS_P1;PMS_P2;Temp;Humidity;BMP_temperature;BMP_pressure;BME280_temperature;BME280_humidity;BME280_pressure;Samples;Min_cycle;Max_cycle;Signal;HPM_P1;HPM_P2
2024/01/28 00:00:20;;;;;;;39.72;15.93;;;;;;;-2.71;100.00;100449.59;5099477;28;20052;-63
2024/01/28 00:02:46;;;;;;;44.20;19.20;;;;;;;-2.70;100.00;100441.31;5099039;28;20044;-63
2024/01/28 00:05:13;;;;;;;37.10;16.13;;;;;;;-2.74;100.00;100428.63;5099427;28;20135;-63
2024/01/28 00:07:39;;;;;;;39.63;17.42;;;;;;;-2.75;100.00;100427.81;5098964;28;20432;-64
2024/01/28 00:10:06;;;;;;;36.13;16.00;;;;;;;-2.84;100.00;100415.84;5099349;28;20048;-64
2024/01/28 00:12:32;;;;;;;42.15;16.88;;;;;;;-2.87;100.00;100419.84;5098813;28;20048;-63
2024/01/28 00:14:59;;;;;;;39.88;15.32;;;;;;;-2.78;100.00;100441.72;5099080;28;20106;-64
2024/01/28 00:17:26;;;;;;;45.83;19.00;;;;;;;-2.74;100.00;100444.72;5098879;28;20066;-64
2024/01/28 00:19:52;;;;;;;38.50;16.17;;;;;;;-2.76;100.00;100449.53;5098652;28;20055;-64
2024/01/28 00:22:18;;;;;;;39.10;16.48;;;;;;;-2.81;100.00;100444.88;5098895;28;20063;-63
2024/01/28 00:24:44;;;;;;;34.83;15.20;;;;;;;-2.81;100.00;100436.03;5098704;28;20333;-64
2024/01/28 00:27:10;;;;;;;38.67;16.42;;;;;;;-2.79;100.00;100450.84;5098998;28;20056;-63
2024/01/28 00:29:36;;;;;;;33.95;14.70;;;;;;;-2.75;100.00;100448.47;5098705;28;20094;-63
2024/01/28 00:32:03;;;;;;;40.70;16.65;;;;;;;-2.61;100.00;100458.63;5098376;28;20051;-64
2024/01/28 00:34:30;;;;;;;32.78;14.43;;;;;;;-2.52;100.00;100467.06;5097867;28;20117;-64
2024/01/28 00:36:56;;;;;;;33.28;15.13;;;;;;;-2.40;100.00;100483.91;5098916;28;20328;-65
2024/01/28 00:39:22;;;;;;;31.80;14.82;;;;;;;-2.28;100.00;100466.88;5098449;28;20062;-63
2024/01/28 00:41:48;;;;;;;34.97;14.90;;;;;;;-2.16;100.00;100459.53;5098824;28;20443;-64
2024/01/28 00:44:14;;;;;;;30.60;13.77;;;;;;;-2.14;100.00;100444.75;5098387;28;20051;-63
2024/01/28 00:46:40;;;;;;;29.48;12.93;;;;;;;-2.05;100.00;100417.47;5098475;28;20056;-64
2024/01/28 00:49:07;;;;;;;33.83;14.23;;;;;;;-2.00;100.00;100406.75;5098636;28;20048;-64
2024/01/28 00:51:34;;;;;;;34.58;14.10;;;;;;;-2.06;100.00;100392.47;5098169;28;20062;-64
2024/01/28 00:54:00;;;;;;;45.50;19.05;;;;;;;-1.94;100.00;100390.44;5098556;28;20059;-63
2024/01/28 00:56:26;;;;;;;44.38;19.02;;;;;;;-1.90;100.00;100370.06;5098248;28;20078;-64
2024/01/28 00:58:52;;;;;;;60.05;21.45;;;;;;;-1.92;100.00;100345.31;5098564;28;20055;-64
2024/01/28 01:01:19;;;;;;;52.53;20.63;;;;;;;-1.85;100.00;100326.28;5098226;28;20162;-63
2024/01/28 01:03:45;;;;;;;43.72;19.17;;;;;;;-1.85;100.00;100318.22;5098586;28;20059;-64
2024/01/28 01:06:11;;;;;;;49.88;20.20;;;;;;;-1.74;100.00;100309.19;5098071;28;20067;-63
2024/01/28 01:08:38;;;;;;;41.65;17.70;;;;;;;-1.70;100.00;100294.19;5098539;28;20317;-64
2024/01/28 01:11:06;;;;;;;40.38;18.08;;;;;;;-1.72;100.00;100284.75;5097852;28;20310;-65
2024/01/28 01:13:33;;;;;;;39.45;16.45;;;;;;;-1.65;100.00;100279.97;5097898;28;20406;-64
2024/01/28 01:15:59;;;;;;;41.33;15.93;;;;;;;-1.71;100.00;100299.81;5098215;28;20056;-64
2024/01/28 01:18:26;;;;;;;45.05;16.77;;;;;;;-1.61;100.00;100331.34;5098071;28;20048;-65
2024/01/28 01:20:52;;;;;;;42.55;16.73;;;;;;;-1.56;100.00;100361.00;5097945;28;20051;-64
2024/01/28 01:23:18;;;;;;;51.10;18.70;;;;;;;-1.59;100.00;100374.94;5097733;28;20074;-64
2024/01/28 01:25:45;;;;;;;41.63;15.95;;;;;;;-1.54;100.00;100404.56;5098006;28;20432;-64
2024/01/28 01:28:11;;;;;;;65.05;18.17;;;;;;;-1.57;100.00;100435.44;5097638;28;20047;-63
2024/01/28 01:30:39;;;;;;;43.35;16.95;;;;;;;-1.49;100.00;100467.28;5097522;28;20048;-63
2024/01/28 01:33:05;;;;;;;46.42;18.45;;;;;;;-1.45;100.00;100497.19;5097644;28;20146;-64
2024/01/28 01:35:31;;;;;;;63.65;19.30;;;;;;;-1.37;100.00;100533.56;5098031;28;20109;-64
2024/01/28 01:37:57;;;;;;;55.65;19.17;;;;;;;-1.43;100.00;100538.09;5097563;28;20120;-63
2024/01/28 01:40:23;;;;;;;55.30;21.30;;;;;;;-1.44;100.00;100563.34;5097734;28;20121;-64
2024/01/28 01:42:51;;;;;;;53.45;20.55;;;;;;;-1.45;100.00;100578.69;5097764;28;20383;-63
2024/01/28 01:45:17;;;;;;;59.35;19.88;;;;;;;-1.42;100.00;100583.56;5097376;28;20051;-64
2024/01/28 01:47:43;;;;;;;83.13;24.13;;;;;;;-1.40;100.00;100591.38;5096818;28;20312;-64
2024/01/28 01:50:11;;;;;;;73.15;19.35;;;;;;;-1.55;100.00;100608.16;5097412;28;20340;-64
2024/01/28 01:52:38;;;;;;;62.28;19.08;;;;;;;-1.61;100.00;100640.59;5097679;28;20063;-64
2024/01/28 01:55:07;;;;;;;56.70;22.45;;;;;;;-1.49;100.00;100657.44;5097262;28;20489;-64
2024/01/28 01:57:33;;;;;;;67.13;25.98;;;;;;;-1.60;100.00;100629.59;5097644;28;20063;-64
2024/01/28 02:00:00;;;;;;;70.72;24.42;;;;;;;-1.51;100.00;100605.75;5097215;28;20337;-64
2024/01/28 02:02:27;;;;;;;61.78;22.23;;;;;;;-1.56;100.00;100590.38;5097681;28;20048;-64
2024/01/28 02:04:53;;;;;;;70.78;23.75;;;;;;;-1.77;100.00;100578.53;5097058;28;20044;-64
2024/01/28 02:07:19;;;;;;;74.13;22.10;;;;;;;-1.55;100.00;100615.41;5097559;28;20099;-63
2024/01/28 02:09:45;;;;;;;82.95;18.52;;;;;;;-1.56;100.00;100624.53;5097019;28;20324;-64
2024/01/28 02:12:11;;;;;;;57.63;20.13;;;;;;;-1.58;100.00;100632.84;5097159;28;20047;-63
2024/01/28 02:14:38;;;;;;;64.05;18.67;;;;;;;-1.54;100.00;100651.97;5097090;28;20405;-64
2024/01/28 02:17:05;;;;;;;91.75;19.27;;;;;;;-1.69;100.00;100655.28;5097145;28;20048;-63
2024/01/28 02:19:31;;;;;;;78.85;17.05;;;;;;;-1.52;100.00;100672.19;5097216;28;20306;-64
2024/01/28 02:21:57;;;;;;;62.33;16.08;;;;;;;-1.60;100.00;100663.72;5096867;28;20146;-64
2024/01/28 02:24:24;;;;;;;68.68;17.08;;;;;;;-1.60;100.00;100675.31;5097129;28;20044;-63
2024/01/28 02:26:50;;;;;;;60.33;15.93;;;;;;;-1.63;100.00;100693.81;5096870;28;20145;-63
2024/01/28 02:29:16;;;;;;;89.38;17.92;;;;;;;-1.74;100.00;100693.66;5097122;28;20409;-64
2024/01/28 02:31:44;;;;;;;38.80;15.32;;;;;;;-1.69;100.00;100712.56;5096678;28;20051;-63
2024/01/28 02:34:10;;;;;;;41.88;17.63;;;;;;;-1.68;100.00;100711.50;5097173;28;20143;-64
2024/01/28 02:36:36;;;;;;;45.40;17.25;;;;;;;-1.74;100.00;100711.66;5096654;28;20055;-65
2024/01/28 02:39:02;;;;;;;44.28;17.75;;;;;;;-1.82;100.00;100714.78;5096544;28;20060;-64
2024/01/28 02:41:29;;;;;;;52.78;16.80;;;;;;;-1.76;100.00;100722.69;5096928;28;20054;-63
2024/01/28 02:43:55;;;;;;;49.78;17.00;;;;;;;-1.70;100.00;100737.00;5096750;28;20139;-64
2024/01/28 02:46:21;;;;;;;57.70;17.00;;;;;;;-1.76;100.00;100730.75;5096681;28;20063;-63
2024/01/28 02:48:46;;;;;;;52.38;16.75;;;;;;;-1.69;100.00;100734.06;5096479;28;20055;-64
2024/01/28 02:51:12;;;;;;;57.85;14.73;;;;;;;-1.69;100.00;100742.13;5096579;28;20048;-64
2024/01/28 02:53:38;;;;;;;52.95;16.20;;;;;;;-1.62;100.00;100749.22;5096535;28;20079;-64
2024/01/28 02:56:06;;;;;;;34.80;13.85;;;;;;;-1.61;100.00;100754.34;5096770;28;20400;-64
2024/01/28 02:58:32;;;;;;;44.20;15.75;;;;;;;-1.64;100.00;100749.47;5095867;28;20413;-64
2024/01/28 03:00:58;;;;;;;33.85;13.85;;;;;;;-1.58;100.00;100759.25;5096861;28;20062;-64
2024/01/28 03:03:25;;;;;;;47.97;13.93;;;;;;;-1.60;100.00;100749.78;5096305;28;20112;-63
2024/01/28 03:05:51;;;;;;;31.80;13.32;;;;;;;-1.50;100.00;100760.69;5096754;28;20316;-63
2024/01/28 03:08:17;;;;;;;48.30;14.57;;;;;;;-1.57;100.00;100762.75;5096182;28;20079;-63
2024/01/28 03:10:43;;;;;;;65.30;16.02;;;;;;;-1.59;100.00;100765.69;5096381;28;20143;-64
2024/01/28 03:13:08;;;;;;;78.85;14.60;;;;;;;-1.62;100.00;100760.81;5096449;28;20052;-63
2024/01/28 03:15:35;;;;;;;56.92;14.15;;;;;;;-1.71;100.00;100759.56;5096195;28;20404;-63
2024/01/28 03:18:01;;;;;;;82.40;14.52;;;;;;;-1.62;100.00;100760.81;5096327;28;20427;-63
2024/01/28 03:20:27;;;;;;;101.50;15.23;;;;;;;-1.71;100.00;100764.94;5095986;28;20135;-64
2024/01/28 03:22:53;;;;;;;100.50;16.13;;;;;;;-1.74;100.00;100765.44;5096427;28;20088;-63
2024/01/28 03:25:19;;;;;;;56.38;14.48;;;;;;;-1.75;100.00;100779.94;5096152;28;20085;-64
2024/01/28 03:27:45;;;;;;;156.32;17.33;;;;;;;-1.77;100.00;100798.19;5095921;28;20444;-64
2024/01/28 03:30:11;;;;;;;53.03;14.05;;;;;;;-1.73;100.00;100791.28;5095905;28;20063;-64
2024/01/28 03:32:38;;;;;;;61.75;14.70;;;;;;;-1.75;100.00;100802.28;5096394;28;20138;-64
2024/01/28 03:35:04;;;;;;;71.78;14.07;;;;;;;-1.75;100.00;100801.47;5095790;28;20510;-64
2024/01/28 03:37:30;;;;;;;51.28;14.40;;;;;;;-1.71;100.00;100797.22;5096181;28;20052;-64
2024/01/28 03:39:56;;;;;;;110.72;15.93;;;;;;;-1.73;100.00;100796.66;5096118;28;20147;-64
2024/01/28 03:42:23;;;;;;;59.83;15.45;;;;;;;-1.76;100.00;100807.91;5096049;28;20389;-64
2024/01/28 03:44:49;;;;;;;37.85;14.38;;;;;;;-1.79;100.00;100803.00;5096097;28;20059;-64
2024/01/28 03:47:15;;;;;;;71.65;15.68;;;;;;;-1.74;100.00;100798.50;5095908;28;20048;-64
2024/01/28 03:49:42;;;;;;;41.60;13.82;;;;;;;-1.74;100.00;100806.56;5095894;28;20139;-64
2024/01/28 03:52:08;;;;;;;54.95;15.10;;;;;;;-1.77;100.00;100798.19;5095728;28;20439;-64
2024/01/28 03:54:34;;;;;;;39.00;15.10;;;;;;;-1.76;100.00;100805.22;5096019;28;20052;-64
2024/01/28 03:56:59;;;;;;;75.22;14.18;;;;;;;-1.86;100.00;100802.34;5095639;28;20056;-64
2024/01/28 03:59:27;;;;;;;51.63;13.82;;;;;;;-1.92;100.00;100802.25;5096114;28;20090;-64
2024/01/28 04:01:53;;;;;;;57.97;14.32;;;;;;;-2.08;100.00;100794.97;5095559;28;20055;-64
2024/01/28 04:04:19;;;;;;;62.30;16.10;;;;;;;-2.14;100.00;100798.59;5095954;28;20052;-63
2024/01/28 04:06:45;;;;;;;67.68;14.73;;;;;;;-2.17;100.00;100804.47;5095772;28;20119;-64
2024/01/28 04:09:11;;;;;;;66.32;15.73;;;;;;;-2.23;100.00;100808.09;5095897;28;20056;-64
2024/01/28 04:11:37;;;;;;;46.33;13.93;;;;;;;-2.23;100.00;100806.25;5099071;28;20316;-64
2024/01/28 04:14:03;;;;;;;43.15;14.85;;;;;;;-2.31;100.00;100793.19;5098848;28;20052;-64
2024/01/28 04:16:31;;;;;;;56.50;14.82;;;;;;;-2.41;100.00;100785.75;5099219;28;20113;-64
2024/01/28 04:18:57;;;;;;;40.25;15.02;;;;;;;-2.44;100.00;100788.91;5098891;28;20086;-63
2024/01/28 04:21:23;;;;;;;37.58;14.48;;;;;;;-2.47;100.00;100784.00;5099111;28;20048;-63
2024/01/28 04:23:51;;;;;;;31.60;13.40;;;;;;;-2.49;100.00;100772.72;5098845;28;20066;-64
2024/01/28 04:26:17;;;;;;;51.42;13.23;;;;;;;-2.59;100.00;100771.72;5099098;28;20058;-64
2024/01/28 04:28:45;;;;;;;46.33;13.13;;;;;;;-2.56;100.00;100774.72;5098699;28;20093;-64
2024/01/28 04:31:12;;;;;;;36.40;12.98;;;;;;;-2.63;100.00;100766.00;5099055;28;20083;-64
2024/01/28 04:33:38;;;;;;;95.63;18.30;;;;;;;-2.72;100.00;100775.47;5098493;28;20105;-63
2024/01/28 04:36:05;;;;;;;95.22;15.55;;;;;;;-2.68;100.00;100793.53;5098811;28;20398;-63
2024/01/28 04:38:31;;;;;;;48.78;13.90;;;;;;;-2.72;100.00;100803.13;5098801;28;20060;-64
2024/01/28 04:40:58;;;;;;;152.82;16.92;;;;;;;-2.75;100.00;100818.91;5098669;28;20197;-63
2024/01/28 04:43:24;;;;;;;83.43;16.05;;;;;;;-2.70;100.00;100832.41;5098782;28;20360;-64
2024/01/28 04:45:49;;;;;;;70.95;14.15;;;;;;;-2.77;100.00;100832.53;5098398;28;20143;-64
2024/01/28 04:48:15;;;;;;;31.08;13.27;;;;;;;-2.75;100.00;100835.81;5098724;28;20138;-64
2024/01/28 04:50:41;;;;;;;54.17;14.00;;;;;;;-2.81;100.00;100835.94;5098300;28;20044;-64
2024/01/28 04:53:07;;;;;;;125.70;15.40;;;;;;;-2.86;100.00;100842.03;5098619;28;20420;-63
2024/01/28 04:55:34;;;;;;;137.93;15.68;;;;;;;-2.89;100.00;100853.22;5098216;28;20148;-64
2024/01/28 04:58:00;;;;;;;46.50;14.13;;;;;;;-2.98;100.00;100860.81;5098609;28;20063;-64
2024/01/28 05:00:26;;;;;;;35.90;14.18;;;;;;;-3.08;100.00;100852.53;5098171;28;20058;-63
2024/01/28 05:02:55;;;;;;;21.58;10.60;;;;;;;-3.25;100.00;100840.84;5098537;28;20483;-63
2024/01/28 05:05:21;;;;;;;34.95;12.88;;;;;;;-3.45;100.00;100833.94;5098328;28;20052;-63
2024/01/28 05:07:47;;;;;;;28.35;11.70;;;;;;;-3.35;100.00;100825.34;5098150;28;20116;-64
2024/01/28 05:10:13;;;;;;;28.40;13.10;;;;;;;-3.50;100.00;100823.09;5098338;28;20138;-64
2024/01/28 05:12:39;;;;;;;32.42;13.30;;;;;;;-3.51;100.00;100810.75;5098063;28;20458;-64
2024/01/28 05:15:07;;;;;;;23.83;10.52;;;;;;;-3.58;100.00;100815.41;5098335;28;20131;-63
2024/01/28 05:17:35;;;;;;;25.77;12.73;;;;;;;-3.62;100.00;100814.22;5097907;28;20094;-62
2024/01/28 05:20:02;;;;;;;25.08;11.32;;;;;;;-3.75;100.00;100811.75;5097899;28;20131;-63
2024/01/28 05:22:28;;;;;;;26.55;12.70;;;;;;;-3.81;100.00;100803.56;5097914;28;20137;-64
2024/01/28 05:24:55;;;;;;;25.00;12.68;;;;;;;-3.83;100.00;100792.28;5098261;28;20304;-64
2024/01/28 05:27:21;;;;;;;36.28;15.07;;;;;;;-3.87;100.00;100792.97;5097735;28;20424;-63
2024/01/28 05:29:47;;;;;;;24.75;10.25;;;;;;;-3.90;100.00;100785.38;5097861;28;20052;-64
2024/01/28 05:32:14;;;;;;;24.15;10.38;;;;;;;-3.99;100.00;100768.84;5097259;28;20446;-64
2024/01/28 05:34:40;;;;;;;24.77;10.85;;;;;;;-4.03;100.00;100767.66;5097762;28;20135;-65
2024/01/28 05:37:06;;;;;;;25.27;10.52;;;;;;;-3.98;100.00;100783.84;5097657;28;20374;-64
2024/01/28 05:39:32;;;;;;;24.55;12.02;;;;;;;-4.08;100.00;100779.06;5097474;28;20059;-64
2024/01/28 05:41:58;;;;;;;30.08;13.35;;;;;;;-4.07;100.00;100775.31;5097732;28;20052;-63
2024/01/28 05:44:24;;;;;;;24.90;11.50;;;;;;;-4.09;100.00;100777.44;5097536;28;20388;-63
2024/01/28 05:46:50;;;;;;;27.58;13.02;;;;;;;-4.06;100.00;100757.41;5097624;28;20138;-63
2024/01/28 05:49:16;;;;;;;21.88;11.50;;;;;;;-4.06;100.00;100758.22;5097019;28;20081;-65
2024/01/28 05:51:42;;;;;;;28.98;11.05;;;;;;;-4.03;100.00;100767.66;5096954;28;20047;-64
2024/01/28 05:54:10;;;;;;;26.60;11.25;;;;;;;-3.98;100.00;100761.59;5096854;28;20151;-64
2024/01/28 05:56:36;;;;;;;41.08;14.73;;;;;;;-3.99;100.00;100751.94;5097280;28;20047;-62
2024/01/28 05:59:02;;;;;;;37.97;15.98;;;;;;;-3.97;100.00;100747.97;5096739;28;20058;-63
2024/01/28 06:01:28;;;;;;;26.23;12.10;;;;;;;-4.02;100.00;100735.28;5097011;28;20112;-64
2024/01/28 06:03:54;;;;;;;25.00;11.57;;;;;;;-3.99;100.00;100722.47;5096931;28;20048;-64
2024/01/28 06:06:20;;;;;;;29.77;12.50;;;;;;;-4.03;100.00;100704.19;5096676;28;20455;-64
2024/01/28 06:08:46;;;;;;;25.63;12.35;;;;;;;-4.03;100.00;100698.84;5097053;28;20147;-64
2024/01/28 06:11:12;;;;;;;29.58;13.35;;;;;;;-4.09;100.00;100662.25;5096763;28;20052;-64
2024/01/28 06:13:38;;;;;;;26.45;11.95;;;;;;;-4.15;100.00;100655.13;5096793;28;20083;-64
2024/01/28 06:16:06;;;;;;;23.30;10.02;;;;;;;-4.08;100.00;100655.84;5096685;28;20154;-64
2024/01/28 06:18:32;;;;;;;23.60;10.82;;;;;;;-4.02;100.00;100651.44;5096980;28;20052;-63
2024/01/28 06:20:58;;;;;;;27.40;11.40;;;;;;;-3.92;100.00;100654.34;5096536;28;20142;-64
2024/01/28 06:23:25;;;;;;;18.58;9.55;;;;;;;-4.05;100.00;100619.75;5096877;28;20048;-64
2024/01/28 06:25:51;;;;;;;24.30;9.35;;;;;;;-3.87;100.00;100635.69;5096424;28;20355;-64
2024/01/28 06:28:17;;;;;;;24.90;10.52;;;;;;;-3.87;100.00;100622.28;5096861;28;20146;-64
2024/01/28 06:30:43;;;;;;;24.90;10.43;;;;;;;-3.80;100.00;100620.31;5096656;28;20116;-64
2024/01/28 06:33:10;;;;;;;22.92;10.35;;;;;;;-3.75;100.00;100608.91;5095691;28;20048;-63
2024/01/28 06:35:36;;;;;;;24.27;12.57;;;;;;;-3.79;100.00;100580.94;5096610;28;20052;-63
2024/01/28 06:38:02;;;;;;;28.73;11.25;;;;;;;-3.60;100.00;100581.59;5096595;28;20058;-63
2024/01/28 06:40:29;;;;;;;25.40;10.82;;;;;;;-3.59;100.00;100541.16;5096601;28;20056;-63
2024/01/28 06:42:55;;;;;;;26.27;10.88;;;;;;;-3.53;100.00;100509.91;5096278;28;20413;-62
2024/01/28 06:45:20;;;;;;;24.50;10.95;;;;;;;-3.57;100.00;100484.63;5096369;28;20062;-62
2024/01/28 06:47:46;;;;;;;30.63;10.63;;;;;;;-3.59;100.00;100460.75;5096234;28;20056;-62
2024/01/28 06:50:12;;;;;;;22.77;10.82;;;;;;;-3.59;100.00;100447.34;5096307;28;20165;-63
2024/01/28 06:52:38;;;;;;;22.02;10.57;;;;;;;-3.70;100.00;100417.91;5095957;28;20208;-64
2024/01/28 06:55:05;;;;;;;29.13;10.45;;;;;;;-3.61;100.00;100436.03;5096364;28;20489;-64
2024/01/28 06:57:32;;;;;;;23.85;10.55;;;;;;;-3.68;100.00;100435.38;5095950;28;20134;-64
2024/01/28 06:59:58;;;;;;;26.00;11.68;;;;;;;-3.56;100.00;100430.78;5096035;28;20142;-64
2024/01/28 07:02:24;;;;;;;23.88;11.27;;;;;;;-3.11;100.00;100423.75;5096183;28;20119;-64
2024/01/28 07:04:50;;;;;;;22.02;10.68;;;;;;;-2.51;100.00;100376.59;5095810;28;20062;-64
2024/01/28 07:07:16;;;;;;;23.45;12.38;;;;;;;-1.66;100.00;100241.50;5096223;28;20047;-64
2024/01/28 07:09:42;;;;;;;26.77;13.02;;;;;;;-0.98;100.00;100020.13;5096290;28;20044;-64
2024/01/28 07:12:08;;;;;;;20.42;11.00;;;;;;;-0.46;100.00;99816.25;5096420;28;20109;-64
2024/01/28 07:14:35;;;;;;;17.55;9.32;;;;;;;0.15;100.00;99698.09;5096068;28;20147;-64
2024/01/28 07:17:01;;;;;;;22.30;10.27;;;;;;;0.15;100.00;99711.56;5096462;28;20054;-64
2024/01/28 07:19:27;;;;;;;22.70;10.93;;;;;;;0.30;100.00;99779.94;5096061;28;20139;-64
2024/01/28 07:21:53;;;;;;;19.58;10.30;;;;;;;0.45;100.00;99842.66;5096410;28;20052;-64
2024/01/28 07:24:19;;;;;;;24.30;10.18;;;;;;;0.94;100.00;99876.03;5096021;28;20048;-64
2024/01/28 07:26:46;;;;;;;24.05;11.38;;;;;;;1.46;100.00;99943.88;5096388;28;20095;-64
2024/01/28 07:29:12;;;;;;;26.38;10.45;;;;;;;1.68;100.00;99992.03;5095775;28;20048;-64
2024/01/28 07:31:38;;;;;;;21.27;11.55;;;;;;;1.91;100.00;100039.13;5095808;28;20062;-64
2024/01/28 07:34:04;;;;;;;24.38;11.45;;;;;;;2.03;100.00;100069.28;5095871;28;20056;-64
2024/01/28 07:36:30;;;;;;;23.73;11.73;;;;;;;2.31;100.00;100119.84;5095961;28;20062;-64
2024/01/28 07:38:56;;;;;;;22.05;11.32;;;;;;;2.80;100.00;100129.59;5095839;28;20063;-64
2024/01/28 07:41:22;;;;;;;22.30;11.60;;;;;;;2.92;100.00;100166.28;5095716;28;20496;-64
2024/01/28 07:43:48;;;;;;;28.80;12.63;;;;;;;3.11;100.00;100196.94;5097104;28;20047;-65
2024/01/28 07:46:14;;;;;;;20.05;12.18;;;;;;;3.17;100.00;100203.13;5099204;28;20051;-65
2024/01/28 07:48:42;;;;;;;25.42;12.63;;;;;;;3.84;100.00;100211.16;5099667;28;20052;-64
2024/01/28 07:51:08;;;;;;;20.08;11.23;;;;;;;3.06;100.00;100237.63;5098881;28;20048;-64
2024/01/28 07:53:34;;;;;;;24.98;12.85;;;;;;;2.81;100.00;100217.88;5099439;28;20147;-64
2024/01/28 07:56:02;;;;;;;21.73;12.07;;;;;;;2.87;100.00;100196.16;5098938;28;20302;-65
2024/01/28 07:58:28;;;;;;;23.42;12.88;;;;;;;2.53;100.00;100191.63;5099389;28;20405;-64
2024/01/28 08:00:54;;;;;;;25.38;13.60;;;;;;;2.69;100.00;100192.28;5098875;28;20197;-64
2024/01/28 08:03:21;;;;;;;24.38;12.15;;;;;;;3.45;100.00;100188.63;5099251;28;20056;-64
2024/01/28 08:05:48;;;;;;;22.38;12.43;;;;;;;3.07;100.00;100223.00;5099423;28;20059;-64
2024/01/28 08:08:13;;;;;;;27.17;14.68;;;;;;;2.82;100.00;100205.94;5098876;28;20143;-65
2024/01/28 08:10:41;;;;;;;33.88;16.20;;;;;;;2.25;100.00;100171.59;5099167;28;20048;-64
2024/01/28 08:13:07;;;;;;;28.98;14.52;;;;;;;2.00;100.00;100118.53;5098911;28;20310;-64
2024/01/28 08:15:33;;;;;;;31.25;14.95;;;;;;;1.92;100.00;100076.69;5099292;28;20137;-65
2024/01/28 08:17:58;;;;;;;27.00;15.25;;;;;;;1.78;100.00;100029.78;5098897;28;20052;-64
2024/01/28 08:20:24;;;;;;;32.60;16.00;;;;;;;1.65;100.00;99990.72;5099124;28;20423;-64
2024/01/28 08:22:51;;;;;;;28.63;14.35;;;;;;;1.67;100.00;99953.41;5098619;28;20142;-65
2024/01/28 08:25:17;;;;;;;34.67;19.30;;;;;;;1.38;100.00;99935.28;5099090;28;20090;-64
2024/01/28 08:27:44;;;;;;;35.28;18.45;;;;;;;1.46;100.00;99887.13;5098479;28;20134;-64
2024/01/28 08:30:11;;;;;;;41.95;19.23;;;;;;;1.29;100.00;99864.06;5098622;28;20062;-64
2024/01/28 08:32:37;;;;;;;37.65;18.67;;;;;;;1.34;100.00;99838.91;5098827;28;20075;-64
2024/01/28 08:35:03;;;;;;;37.70;16.90;;;;;;;1.25;100.00;99805.50;5098723;28;20048;-65
2024/01/28 08:37:29;;;;;;;30.17;14.65;;;;;;;1.22;100.00;99797.97;5098691;28;20063;-64
2024/01/28 08:39:56;;;;;;;30.55;14.85;;;;;;;1.29;100.00;99801.13;5098597;28;20048;-64
2024/01/28 08:42:22;;;;;;;31.08;15.55;;;;;;;0.85;100.00;99794.84;5098797;28;20336;-64
2024/01/28 08:44:48;;;;;;;34.33;15.48;;;;;;;1.26;100.00;99789.00;5098352;28;20432;-64
2024/01/28 08:47:14;;;;;;;37.25;15.48;;;;;;;1.21;100.00;99788.28;5098317;28;20048;-64
2024/01/28 08:49:40;;;;;;;29.10;14.65;;;;;;;1.28;100.00;99784.13;5098240;28;20048;-65
2024/01/28 08:52:06;;;;;;;33.10;15.82;;;;;;;1.31;100.00;99782.75;5098590;28;20143;-63
2024/01/28 08:54:33;;;;;;;31.33;16.60;;;;;;;0.93;100.00;99786.13;5098212;28;20325;-64
2024/01/28 08:57:00;;;;;;;30.33;14.32;;;;;;;1.21;100.00;99791.78;5098071;28;20416;-64
2024/01/28 08:59:25;;;;;;;33.05;16.25;;;;;;;1.18;100.00;99795.03;5098172;28;20401;-64
2024/01/28 09:01:51;;;;;;;28.20;14.48;;;;;;;1.39;100.00;99807.22;5098056;28;20048;-64
2024/01/28 09:04:17;;;;;;;35.63;15.70;;;;;;;1.51;100.00;99822.22;5098442;28;20139;-64
2024/01/28 09:06:43;;;;;;;31.65;15.65;;;;;;;1.60;100.00;99818.59;5098076;28;20389;-64
2024/01/28 09:09:10;;;;;;;34.97;15.57;;;;;;;1.61;100.00;99817.50;5098365;28;20166;-64
2024/01/28 09:11:37;;;;;;;30.20;14.82;;;;;;;1.72;100.00;99807.34;5098038;28;20058;-65
2024/01/28 09:14:03;;;;;;;30.25;14.57;;;;;;;1.94;100.00;99806.00;5098238;28;20062;-63
2024/01/28 09:16:29;;;;;;;29.45;15.23;;;;;;;1.80;100.00;99806.72;5098030;28;20058;-64
2024/01/28 09:18:55;;;;;;;34.13;15.55;;;;;;;1.97;100.00;99811.63;5098261;28;20044;-65
2024/01/28 09:21:21;;;;;;;31.95;16.50;;;;;;;1.86;100.00;99810.16;5097756;28;20067;-64
2024/01/28 09:23:47;;;;;;;32.60;15.10;;;;;;;1.99;100.00;99817.53;5098249;28;20052;-64
2024/01/28 09:26:13;;;;;;;30.92;16.27;;;;;;;1.92;100.00;99813.59;5097660;28;20043;-64
2024/01/28 09:28:39;;;;;;;34.85;16.42;;;;;;;2.10;100.00;99823.63;5097984;28;20048;-64
2024/01/28 09:31:07;;;;;;;28.30;15.85;;;;;;;2.05;100.00;99823.69;5097652;28;20074;-64
2024/01/28 09:33:33;;;;;;;34.97;17.48;;;;;;;1.99;100.00;99822.94;5097702;28;20152;-64
2024/01/28 09:35:59;;;;;;;34.78;17.10;;;;;;;2.08;100.00;99833.91;5097922;28;20082;-64
2024/01/28 09:38:25;;;;;;;35.35;18.08;;;;;;;2.07;100.00;99830.41;5097656;28;20355;-64
2024/01/28 09:40:52;;;;;;;34.15;17.60;;;;;;;2.24;100.00;99818.28;5097734;28;20475;-64
2024/01/28 09:43:27;;;;;;;37.63;17.90;;;;;;;2.16;100.00;99822.44;5097592;28;20059;-64
2024/01/28 09:45:54;;;;;;;34.35;16.70;;;;;;;2.20;100.00;99822.66;5097908;28;20134;-64
2024/01/28 09:48:21;;;;;;;33.28;17.30;;;;;;;2.32;100.00;99839.25;5097332;28;20048;-65
2024/01/28 09:50:47;;;;;;;36.58;15.95;;;;;;;2.25;100.00;99819.88;5097692;28;20086;-64
2024/01/28 09:53:13;;;;;;;28.45;15.20;;;;;;;2.36;100.00;99830.25;5097113;28;20047;-64
2024/01/28 09:55:39;;;;;;;30.17;15.55;;;;;;;2.22;100.00;99842.13;5097430;28;20376;-65
2024/01/28 09:58:05;;;;;;;28.30;13.85;;;;;;;2.48;100.00;99837.13;5097544;28;20063;-64
2024/01/28 10:00:31;;;;;;;31.23;14.88;;;;;;;2.49;100.00;99844.94;5097407;28;20066;-64
2024/01/28 10:02:57;;;;;;;29.52;14.60;;;;;;;2.73;100.00;99836.72;5097287;28;20060;-65
2024/01/28 10:05:24;;;;;;;25.55;13.02;;;;;;;2.65;100.00;99842.81;5097072;28;20138;-64
2024/01/28 10:07:59;;;;;;;30.20;14.38;;;;;;;2.66;100.00;99849.81;5096347;28;20048;-65
2024/01/28 10:10:25;;;;;;;26.67;12.75;;;;;;;2.76;100.00;99852.34;5096939;28;20488;-64
2024/01/28 10:12:52;;;;;;;24.65;12.60;;;;;;;2.81;100.00;99865.81;5097229;28;20062;-64
2024/01/28 10:15:19;;;;;;;26.70;12.38;;;;;;;2.92;100.00;99881.91;5096986;28;20055;-64
2024/01/28 10:17:48;;;;;;;20.20;10.68;;;;;;;2.78;100.00;99873.75;5097426;28;20455;-64
2024/01/28 10:20:15;;;;;;;18.48;11.07;;;;;;;2.81;100.00;99873.16;5096740;28;20409;-64
2024/01/28 10:22:42;;;;;;;21.33;10.82;;;;;;;2.75;100.00;99879.75;5097041;28;20066;-64
2024/01/28 10:25:11;;;;;;;22.10;10.35;;;;;;;2.73;100.00;99893.59;5097063;28;20062;-64
2024/01/28 10:27:37;;;;;;;21.63;10.95;;;;;;;2.73;100.00;99892.75;5096945;28;20052;-64
2024/01/28 10:30:03;;;;;;;21.67;11.43;;;;;;;2.74;100.00;99903.31;5097125;28;20048;-65
2024/01/28 10:32:29;;;;;;;20.05;9.73;;;;;;;2.75;100.00;99925.78;5096880;28;20340;-64
2024/01/28 10:34:55;;;;;;;19.08;10.38;;;;;;;2.50;100.00;99970.25;5097040;28;20079;-64
2024/01/28 10:37:21;;;;;;;18.38;10.18;;;;;;;2.47;100.00;99968.94;5096603;28;20066;-64
2024/01/28 10:39:51;;;;;;;15.65;9.10;;;;;;;2.16;100.00;99989.34;5097091;28;20139;-65
2024/01/28 10:42:19;;;;;;;19.00;9.65;;;;;;;2.10;100.00;99975.91;5096644;28;20460;-64
2024/01/28 10:44:51;;;;;;;16.77;8.93;;;;;;;2.27;100.00;99959.19;5097048;28;20052;-64
2024/01/28 10:47:18;;;;;;;17.60;9.77;;;;;;;2.43;100.00;99948.16;5096487;28;20142;-63
2024/01/28 10:49:47;;;;;;;19.95;9.77;;;;;;;2.59;100.00;99950.34;5096512;28;20056;-64
2024/01/28 10:52:15;;;;;;;19.23;9.18;;;;;;;2.67;100.00;99973.28;5096764;28;20048;-64
2024/01/28 10:54:43;;;;;;;18.88;9.32;;;;;;;2.78;100.00;99987.47;5096544;28;20071;-64
2024/01/28 10:57:10;;;;;;;18.85;8.98;;;;;;;2.75;100.00;100002.38;5096714;28;20044;-64
2024/01/28 10:59:37;;;;;;;20.00;9.23;;;;;;;2.87;100.00;100017.41;5096522;28;20134;-64
2024/01/28 11:02:04;;;;;;;17.33;9.38;;;;;;;2.47;100.00;100014.16;5096692;28;20147;-65